Friday, November 24, 2017, 8:19 AM EST
Back to Local

KROC, Greater Rochester International

Location: Rochester, NY, United States Lat: 43.117
Local Time: 8:19 AM EST (13:19 GMT) Lon: -77.683
Time Zone: US/Eastern Elev: 557 ft

Show me the last for .
Show Decoded

2017-11-24 07:54 METAR KROC 241254Z 21009KT 10SM FEW027 SCT250 03/M03 A2992 RMK AO2 SLP140
                 T00281033 =
2017-11-24 06:54 METAR KROC 241154Z 22005KT 10SM OVC027 03/M02 A2993 RMK AO2 SLP141 T00331022
                 10039 20033 58005 =
2017-11-24 06:44 METAR KROC 241144Z 22008KT 10SM OVC029 03/M02 A2992 RMK AO2 T00331022 =
2017-11-24 05:54 METAR KROC 241054Z 21007KT 10SM OVC033 03/M02 A2993 RMK AO2 SLP144 T00331022 =
2017-11-24 04:54 METAR KROC 240954Z 22005KT 10SM OVC032 03/M02 A2994 RMK AO2 SLP146 T00331022 =
2017-11-24 03:54 METAR KROC 240854Z 20004KT 10SM OVC034 04/M01 A2994 RMK AO2 SLP148 T00391011
                 58005 =
2017-11-24 02:54 METAR KROC 240754Z 25008KT 10SM OVC034 04/M02 A2995 RMK AO2 SLP150 T00391022 =
2017-11-24 01:54 METAR KROC 240654Z 23006KT 10SM OVC040 03/M02 A2996 RMK AO2 SLP153 T00331022 =
2017-11-24 00:54 METAR KROC 240554Z 24008KT 10SM BKN033 OVC050 03/M03 A2996 RMK AO2 SLP153
                 T00331033 10033 20022 53002 =
2017-11-23 23:54 METAR KROC 240454Z 22008KT 10SM FEW040 OVC055 03/M04 A2995 RMK AO2 SLP151
                 T00331039 400331017 =
2017-11-23 22:54 METAR KROC 240354Z 23008KT 10SM OVC060 03/M04 A2995 RMK AO2 SLP149 T00281039 =
2017-11-23 21:54 METAR KROC 240254Z 23010KT 10SM OVC070 03/M04 A2995 RMK AO2 SLP151 T00281039
                 58002 =
2017-11-23 20:54 METAR KROC 240154Z 22006KT 10SM BKN032 OVC075 03/M03 A2996 RMK AO2 SLP154
                 T00281033 =
2017-11-23 19:54 METAR KROC 240054Z 23007KT 10SM SCT055 OVC075 03/M02 A2996 RMK AO2 SLP155
                 T00281022 =
2017-11-23 19:11 METAR KROC 240011Z 23007KT 10SM OVC030 03/M02 A2996 RMK AO2 T00281022 =
2017-11-23 18:54 METAR KROC 232354Z 23008KT 10SM OVC028 03/M02 A2996 RMK AO2 SLP153 T00281022
                 10028 20011 55004 =
2017-11-23 18:24 METAR KROC 232324Z 23009KT 10SM OVC029 03/M02 A2995 RMK AO2 T00281022 =
2017-11-23 17:54 METAR KROC 232254Z 22008KT 10SM OVC030 02/M02 A2995 RMK AO2 SLP153 T00221022 =
2017-11-23 16:54 METAR KROC 232154Z 22008KT 10SM OVC033 02/M02 A2995 RMK AO2 SLP153 T00221022 =
2017-11-23 16:13 METAR KROC 232113Z 22007KT 10SM OVC031 02/M02 A2996 RMK AO2 T00171022 =
2017-11-23 15:54 METAR KROC 232054Z 23009KT 10SM OVC027 02/M03 A2997 RMK AO2 SLP158 T00171028
                 56019 =
2017-11-23 14:54 METAR KROC 231954Z 22008KT 10SM OVC025 02/M03 A2998 RMK AO2 SLP161 T00171028 =
2017-11-23 13:54 METAR KROC 231854Z 23007KT 10SM BKN024 BKN029 OVC100 02/M03 A3000 RMK AO2 SLP169
                 T00171033 =
2017-11-23 12:54 METAR KROC 231754Z 23011KT 10SM OVC028 01/M04 A3003 RMK AO2 SLP177 T00111039
                 10011 21017 58026 =
2017-11-23 11:54 METAR KROC 231654Z 21008KT 10SM OVC027 01/M05 A3005 RMK AO2 SLP186 T00061050 =
2017-11-23 11:44 METAR KROC 231644Z 22008KT 10SM OVC029 01/M05 A3006 RMK AO2 T00061050 =
2017-11-23 10:54 METAR KROC 231554Z 23009KT 10SM OVC034 01/M05 A3009 RMK AO2 SLP199 T00061050 =
2017-11-23 09:54 METAR KROC 231454Z 22008KT 10SM FEW045 BKN100 BKN140 01/M05 A3010 RMK AO2 SLP204
                 T00061050 58004 =
2017-11-23 08:54 METAR KROC 231354Z 23007KT 10SM FEW060 BKN110 BKN160 M01/M05 A3013 RMK AO2
                 SLP212 T10061050 =

Support USWX by starting your Amazon purchase here.